createdAt,value
2022-09-25T00:00:43.929Z,100.00
2022-09-25T00:01:46.057Z,100.00
2022-09-25T00:02:48.346Z,100.00
2022-09-25T00:03:50.743Z,100.00
2022-09-25T00:04:53.289Z,100.00
2022-09-25T00:06:22.822Z,100.00
2022-09-25T00:07:24.967Z,100.00
2022-09-25T00:08:27.149Z,100.00
2022-09-25T00:09:29.242Z,100.00
2022-09-25T00:10:32.040Z,100.00
2022-09-25T00:11:34.754Z,100.00
2022-09-25T00:12:36.845Z,100.00
2022-09-25T00:13:40.463Z,100.00
2022-09-25T00:14:42.601Z,100.00
2022-09-25T00:15:50.133Z,100.00
2022-09-25T00:16:52.352Z,100.00
2022-09-25T00:17:54.598Z,100.00
2022-09-25T00:19:16.237Z,100.00
2022-09-25T00:20:20.693Z,100.00
2022-09-25T00:21:23.023Z,100.00
2022-09-25T00:22:26.206Z,100.00
2022-09-25T00:23:28.356Z,100.00
2022-09-25T00:24:32.104Z,100.00
2022-09-25T00:25:34.560Z,100.00
2022-09-25T00:26:40.291Z,100.00
2022-09-25T00:27:44.414Z,100.00
2022-09-25T00:28:46.692Z,100.00
2022-09-25T00:29:48.938Z,100.00
2022-09-25T00:30:51.078Z,100.00
2022-09-25T00:31:55.126Z,100.00
2022-09-25T00:32:57.227Z,100.00
2022-09-25T00:34:01.623Z,100.00
2022-09-25T00:35:05.280Z,100.00
2022-09-25T00:36:09.679Z,100.00
2022-09-25T00:37:11.841Z,100.00
2022-09-25T00:38:14.018Z,100.00
2022-09-25T00:39:16.109Z,100.00
2022-09-25T00:40:19.672Z,100.00
2022-09-25T00:41:25.781Z,100.00
2022-09-25T00:42:27.867Z,100.00
2022-09-25T00:43:48.801Z,100.00
2022-09-25T00:44:57.644Z,100.00
2022-09-25T00:46:02.881Z,100.00
2022-09-25T00:47:05.449Z,100.00
2022-09-25T00:48:12.521Z,100.00
2022-09-25T00:49:17.505Z,100.00
2022-09-25T00:50:49.783Z,100.00
2022-09-25T00:52:03.362Z,100.00
2022-09-25T00:53:11.522Z,100.00
2022-09-25T00:54:17.949Z,100.00
2022-09-25T00:55:23.067Z,100.00
2022-09-25T00:56:26.365Z,100.00
2022-09-25T00:57:31.375Z,100.00
2022-09-25T00:58:35.383Z,100.00
2022-09-25T00:59:42.164Z,100.00
2022-09-25T01:00:44.264Z,100.00
2022-09-25T01:01:47.136Z,100.00
2022-09-25T01:02:53.425Z,100.00
2022-09-25T01:03:56.143Z,100.00
2022-09-25T01:05:03.040Z,100.00
2022-09-25T01:06:05.812Z,100.00
2022-09-25T01:07:09.164Z,100.00
2022-09-25T01:08:16.480Z,100.00
2022-09-25T01:09:19.085Z,100.00
2022-09-25T01:10:22.063Z,100.00
2022-09-25T01:11:24.267Z,100.00
2022-09-25T01:12:26.374Z,100.00
2022-09-25T01:13:29.899Z,100.00
2022-09-25T01:14:34.738Z,100.00
2022-09-25T01:15:45.447Z,100.00
2022-09-25T01:16:47.528Z,100.00
2022-09-25T01:18:04.410Z,100.00
2022-09-25T01:19:21.188Z,100.00
2022-09-25T01:20:23.250Z,100.00
2022-09-25T01:21:36.658Z,100.00
2022-09-25T01:23:03.771Z,100.00
2022-09-25T01:24:27.594Z,100.00
2022-09-25T01:25:48.243Z,100.00
2022-09-25T01:27:10.633Z,100.00
2022-09-25T01:28:47.864Z,100.00
2022-09-25T01:30:01.698Z,100.00
2022-09-25T01:31:11.428Z,100.00
2022-09-25T01:32:36.372Z,100.00
2022-09-25T01:33:46.605Z,100.00
2022-09-25T01:35:02.868Z,100.00
2022-09-25T01:36:17.191Z,100.00
2022-09-25T01:37:34.656Z,100.00
2022-09-25T01:39:09.790Z,100.00
2022-09-25T01:40:24.805Z,100.00
2022-09-25T01:41:50.749Z,100.00
2022-09-25T01:43:01.405Z,100.00
2022-09-25T01:44:13.524Z,100.00
2022-09-25T01:45:22.075Z,100.00
2022-09-25T01:46:29.127Z,100.00
2022-09-25T01:47:37.887Z,100.00
2022-09-25T01:48:43.277Z,100.00
2022-09-25T01:49:50.830Z,100.00
2022-09-25T01:51:07.098Z,100.00
2022-09-25T01:52:14.823Z,100.00
2022-09-25T01:53:25.747Z,100.00
2022-09-25T01:54:30.361Z,100.00
2022-09-25T01:55:50.911Z,100.00
2022-09-25T01:57:19.803Z,100.00
2022-09-25T01:58:36.827Z,100.00
2022-09-25T01:59:47.156Z,100.00
2022-09-25T02:00:56.605Z,100.00
2022-09-25T02:02:03.495Z,100.00
2022-09-25T02:03:17.283Z,100.00
2022-09-25T02:04:34.495Z,100.00
2022-09-25T02:05:44.595Z,100.00
2022-09-25T02:06:49.383Z,100.00
2022-09-25T02:07:57.041Z,100.00
2022-09-25T02:09:07.360Z,100.00
2022-09-25T02:10:19.145Z,100.00
2022-09-25T02:11:21.654Z,100.00
2022-09-25T02:12:34.254Z,100.00
2022-09-25T02:13:47.178Z,100.00
2022-09-25T02:15:02.812Z,100.00
2022-09-25T02:16:11.447Z,100.00
2022-09-25T02:17:41.779Z,100.00
2022-09-25T02:19:03.364Z,100.00
2022-09-25T02:20:24.841Z,100.00
2022-09-25T02:22:04.532Z,100.00
2022-09-25T02:23:18.750Z,100.00
2022-09-25T02:24:33.169Z,100.00
2022-09-25T02:25:40.953Z,100.00
2022-09-25T02:26:43.457Z,100.00
2022-09-25T02:27:46.221Z,100.00
2022-09-25T02:28:49.300Z,100.00
2022-09-25T02:29:52.279Z,100.00
2022-09-25T02:30:57.760Z,100.00
2022-09-25T02:32:09.042Z,100.00
2022-09-25T02:33:11.196Z,100.00
2022-09-25T02:34:15.339Z,100.00
2022-09-25T02:35:18.566Z,100.00
2022-09-25T02:36:23.979Z,100.00
2022-09-25T02:37:26.961Z,100.00
2022-09-25T02:38:31.417Z,100.00
2022-09-25T02:39:34.348Z,100.00
2022-09-25T02:40:45.778Z,100.00
2022-09-25T02:41:52.128Z,100.00
2022-09-25T02:43:33.093Z,100.00
2022-09-25T02:45:07.736Z,100.00
2022-09-25T02:46:41.986Z,100.00
2022-09-25T02:48:08.556Z,100.00
2022-09-25T02:49:37.066Z,100.00
2022-09-25T02:51:04.369Z,100.00
2022-09-25T02:52:16.427Z,100.00
2022-09-25T02:53:27.985Z,100.00
2022-09-25T02:54:38.596Z,100.00
2022-09-25T02:56:02.968Z,100.00
2022-09-25T02:57:14.319Z,100.00
2022-09-25T02:58:35.484Z,100.00
2022-09-25T02:59:46.293Z,100.00
2022-09-25T03:00:50.322Z,100.00
2022-09-25T03:01:53.037Z,100.00
2022-09-25T03:02:59.638Z,100.00
2022-09-25T03:04:05.395Z,100.00
2022-09-25T03:05:11.847Z,100.00
2022-09-25T03:06:14.320Z,100.00
2022-09-25T03:07:18.100Z,100.00
2022-09-25T03:08:40.983Z,100.00
2022-09-25T03:09:47.575Z,100.00
2022-09-25T03:10:49.740Z,100.00
2022-09-25T03:11:52.867Z,100.00
2022-09-25T03:12:54.944Z,100.00
2022-09-25T03:14:02.236Z,100.00
2022-09-25T03:15:04.764Z,100.00
2022-09-25T03:16:30.519Z,100.00
2022-09-25T03:17:34.324Z,100.00
2022-09-25T03:18:37.945Z,100.00
2022-09-25T03:19:40.084Z,100.00
2022-09-25T03:20:43.087Z,100.00
2022-09-25T03:21:46.301Z,100.00
2022-09-25T03:22:48.466Z,100.00
2022-09-25T03:23:50.603Z,100.00
2022-09-25T03:24:52.694Z,100.00
2022-09-25T03:25:55.346Z,100.00
2022-09-25T03:26:57.509Z,100.00
2022-09-25T03:27:59.583Z,100.00
2022-09-25T03:29:02.240Z,100.00
2022-09-25T03:30:06.121Z,100.00
2022-09-25T03:31:11.448Z,100.00
2022-09-25T03:32:14.800Z,100.00
2022-09-25T03:33:17.555Z,100.00
2022-09-25T03:34:20.132Z,100.00
2022-09-25T03:35:22.986Z,100.00
2022-09-25T03:36:28.168Z,100.00
2022-09-25T03:37:31.209Z,100.00
2022-09-25T03:38:33.939Z,100.00
2022-09-25T03:39:36.046Z,100.00
2022-09-25T03:40:38.306Z,100.00
2022-09-25T03:41:41.221Z,100.00
2022-09-25T03:42:44.022Z,100.00
2022-09-25T03:43:47.991Z,100.00
2022-09-25T03:44:50.138Z,100.00
2022-09-25T03:45:52.311Z,100.00
2022-09-25T03:46:54.491Z,100.00
2022-09-25T03:47:56.667Z,100.00
2022-09-25T03:48:59.438Z,100.00
2022-09-25T03:50:01.547Z,100.00
2022-09-25T03:51:04.784Z,100.00
2022-09-25T03:52:06.874Z,100.00
2022-09-25T03:53:09.015Z,100.00
2022-09-25T03:54:11.217Z,100.00
2022-09-25T03:55:13.377Z,100.00
2022-09-25T03:56:20.019Z,100.00
2022-09-25T03:57:22.125Z,100.00
2022-09-25T03:58:24.296Z,100.00
2022-09-25T03:59:26.882Z,100.00
2022-09-25T04:00:28.991Z,100.00
2022-09-25T04:01:31.258Z,100.00
2022-09-25T04:02:33.493Z,100.00
2022-09-25T04:03:35.714Z,100.00
2022-09-25T04:04:37.830Z,100.00
2022-09-25T04:05:40.249Z,100.00
2022-09-25T04:06:42.335Z,100.00
2022-09-25T04:07:44.462Z,100.00
2022-09-25T04:08:48.076Z,100.00
2022-09-25T04:09:50.405Z,100.00
2022-09-25T04:10:57.047Z,100.00
2022-09-25T04:11:59.158Z,100.00
2022-09-25T04:13:01.714Z,100.00
2022-09-25T04:14:04.720Z,100.00
2022-09-25T04:15:08.852Z,100.00
2022-09-25T04:16:12.338Z,100.00
2022-09-25T04:17:14.588Z,100.00
2022-09-25T04:18:16.694Z,100.00
2022-09-25T04:19:18.772Z,100.00
2022-09-25T04:20:20.890Z,100.00
2022-09-25T04:21:23.322Z,100.00
2022-09-25T04:22:25.523Z,100.00
2022-09-25T04:23:28.021Z,100.00
2022-09-25T04:24:48.387Z,100.00
2022-09-25T04:25:50.586Z,100.00
2022-09-25T04:26:53.656Z,100.00
2022-09-25T04:27:56.851Z,100.00
2022-09-25T04:29:01.401Z,100.00
2022-09-25T04:30:05.278Z,100.00
2022-09-25T04:31:07.454Z,100.00
2022-09-25T04:32:31.562Z,100.00
2022-09-25T04:33:46.334Z,100.00
2022-09-25T04:34:48.549Z,100.00
2022-09-25T04:35:50.757Z,100.00
2022-09-25T04:36:52.858Z,100.00
2022-09-25T04:37:55.061Z,100.00
2022-09-25T04:38:57.155Z,100.00
2022-09-25T04:39:59.264Z,100.00
2022-09-25T04:41:01.991Z,100.00
2022-09-25T04:42:04.127Z,100.00
2022-09-25T04:43:07.099Z,100.00
2022-09-25T04:44:09.205Z,100.00
2022-09-25T04:45:11.437Z,100.00
2022-09-25T04:46:20.085Z,100.00
2022-09-25T04:47:29.201Z,100.00
2022-09-25T04:48:32.081Z,100.00
2022-09-25T04:49:34.172Z,100.00
2022-09-25T04:50:36.364Z,100.00
2022-09-25T04:51:38.457Z,100.00
2022-09-25T04:52:40.589Z,100.00
2022-09-25T04:53:43.076Z,100.00
2022-09-25T04:54:45.406Z,100.00
2022-09-25T04:55:48.106Z,100.00
2022-09-25T04:56:50.283Z,100.00
2022-09-25T04:58:01.779Z,100.00
2022-09-25T04:59:03.885Z,100.00
2022-09-25T05:00:06.838Z,100.00
2022-09-25T05:01:09.668Z,100.00
2022-09-25T05:02:12.680Z,100.00
2022-09-25T05:03:15.519Z,100.00
2022-09-25T05:04:17.751Z,100.00
2022-09-25T05:05:20.182Z,100.00
2022-09-25T05:06:23.173Z,100.00
2022-09-25T05:07:25.387Z,100.00
2022-09-25T05:08:28.093Z,100.00
2022-09-25T05:09:30.783Z,100.00
2022-09-25T05:10:39.709Z,100.00
2022-09-25T05:11:41.885Z,100.00
2022-09-25T05:12:44.052Z,100.00
2022-09-25T05:13:50.182Z,100.00
2022-09-25T05:14:52.371Z,100.00
2022-09-25T05:15:55.000Z,100.00
2022-09-25T05:16:57.326Z,100.00
2022-09-25T05:18:21.389Z,100.00
2022-09-25T05:19:24.010Z,100.00
2022-09-25T05:20:26.195Z,100.00
2022-09-25T05:21:28.301Z,100.00
2022-09-25T05:22:30.518Z,100.00
2022-09-25T05:23:32.787Z,100.00
2022-09-25T05:24:35.510Z,100.00
2022-09-25T05:25:37.806Z,100.00
2022-09-25T05:26:41.229Z,100.00
2022-09-25T05:27:44.410Z,100.00
2022-09-25T05:28:50.314Z,100.00
2022-09-25T05:29:52.553Z,100.00
2022-09-25T05:30:54.923Z,100.00
2022-09-25T05:31:57.031Z,100.00
2022-09-25T05:32:59.467Z,100.00
2022-09-25T05:34:01.587Z,100.00
2022-09-25T05:35:04.474Z,100.00
2022-09-25T05:36:07.932Z,100.00
2022-09-25T05:37:10.043Z,100.00
2022-09-25T05:38:12.438Z,100.00
2022-09-25T05:39:14.904Z,100.00
2022-09-25T05:40:19.468Z,100.00
2022-09-25T05:41:21.700Z,100.00
2022-09-25T05:42:23.770Z,100.00
2022-09-25T05:43:26.581Z,100.00
2022-09-25T05:44:28.711Z,100.00
2022-09-25T05:45:30.808Z,100.00
2022-09-25T05:46:34.036Z,100.00
2022-09-25T05:47:36.133Z,100.00
2022-09-25T05:48:38.988Z,100.00
2022-09-25T05:49:41.115Z,100.00
2022-09-25T05:50:43.225Z,100.00
2022-09-25T05:51:45.366Z,100.00
2022-09-25T05:52:55.562Z,100.00
2022-09-25T05:53:57.911Z,100.00
2022-09-25T05:55:00.827Z,100.00
2022-09-25T05:56:05.187Z,100.00
2022-09-25T05:57:07.320Z,100.00
2022-09-25T05:58:09.460Z,100.00
2022-09-25T05:59:11.562Z,100.00
2022-09-25T06:00:16.329Z,100.00
2022-09-25T06:01:18.764Z,100.00
2022-09-25T06:02:20.892Z,100.00
2022-09-25T06:03:23.038Z,100.00
2022-09-25T06:04:25.463Z,100.00
2022-09-25T06:05:27.650Z,100.00
2022-09-25T06:06:31.766Z,100.00
2022-09-25T06:07:33.853Z,100.00
2022-09-25T06:08:36.032Z,100.00
2022-09-25T06:09:38.156Z,100.00
2022-09-25T06:10:41.236Z,100.00
2022-09-25T06:11:47.360Z,100.00
2022-09-25T06:12:49.554Z,100.00
2022-09-25T06:13:54.815Z,100.00
2022-09-25T06:14:57.044Z,100.00
2022-09-25T06:15:59.353Z,100.00
2022-09-25T06:17:01.996Z,100.00
2022-09-25T06:18:08.690Z,100.00
2022-09-25T06:20:36.144Z,100.00
2022-09-25T06:21:38.263Z,100.00
2022-09-25T06:22:40.422Z,100.00
2022-09-25T06:23:45.324Z,100.00
2022-09-25T06:24:48.747Z,100.00
2022-09-25T06:25:50.927Z,100.00
2022-09-25T06:26:53.143Z,100.00
2022-09-25T06:27:57.055Z,100.00
2022-09-25T06:29:03.236Z,100.00
2022-09-25T06:30:06.280Z,100.00
2022-09-25T06:31:08.539Z,100.00
2022-09-25T06:32:10.682Z,100.00
2022-09-25T06:33:14.339Z,100.00
2022-09-25T06:34:16.433Z,100.00
2022-09-25T06:35:18.565Z,100.00
2022-09-25T06:36:20.744Z,100.00
2022-09-25T06:37:22.885Z,100.00
2022-09-25T06:38:25.877Z,100.00
2022-09-25T06:39:28.028Z,100.00
2022-09-25T06:40:31.907Z,100.00
2022-09-25T06:41:34.693Z,100.00
2022-09-25T06:42:37.799Z,100.00
2022-09-25T06:43:39.958Z,100.00
2022-09-25T06:44:43.842Z,100.00
2022-09-25T06:45:47.880Z,100.00
2022-09-25T06:46:54.529Z,100.00
2022-09-25T06:48:04.933Z,100.00
2022-09-25T06:49:07.089Z,100.00
2022-09-25T06:50:09.446Z,100.00
2022-09-25T06:51:11.624Z,100.00
2022-09-25T06:52:13.736Z,100.00
2022-09-25T06:53:17.444Z,100.00
2022-09-25T06:54:19.569Z,100.00
2022-09-25T06:55:21.684Z,100.00
2022-09-25T06:56:24.325Z,100.00
2022-09-25T06:57:26.416Z,100.00
2022-09-25T06:58:30.338Z,100.00
2022-09-25T06:59:32.527Z,100.00
2022-09-25T07:00:34.984Z,100.00
2022-09-25T07:01:37.138Z,100.00
2022-09-25T07:02:58.185Z,100.00
2022-09-25T07:04:01.733Z,100.00
2022-09-25T07:05:04.120Z,100.00
2022-09-25T07:06:09.045Z,100.00
2022-09-25T07:07:11.218Z,100.00
2022-09-25T07:08:16.256Z,100.00
2022-09-25T07:09:18.373Z,100.00
2022-09-25T07:10:20.586Z,100.00
2022-09-25T07:11:31.366Z,100.00
2022-09-25T07:12:34.195Z,100.00
2022-09-25T07:13:36.817Z,100.00
2022-09-25T07:14:39.098Z,100.00
2022-09-25T07:15:41.248Z,100.00
2022-09-25T07:16:43.410Z,100.00
2022-09-25T07:17:46.094Z,100.00
2022-09-25T07:18:48.582Z,100.00
2022-09-25T07:19:50.707Z,100.00
2022-09-25T07:20:53.990Z,100.00
2022-09-25T07:21:56.516Z,100.00
2022-09-25T07:23:04.032Z,100.00
2022-09-25T07:24:06.195Z,100.00
2022-09-25T07:25:09.906Z,100.00
2022-09-25T07:26:15.133Z,100.00
2022-09-25T07:27:17.375Z,100.00
2022-09-25T07:28:20.054Z,100.00
2022-09-25T07:29:22.311Z,100.00
2022-09-25T07:30:27.372Z,100.00
2022-09-25T07:31:32.984Z,100.00
2022-09-25T07:32:35.805Z,100.00
2022-09-25T07:33:38.417Z,100.00
2022-09-25T07:34:40.539Z,100.00
2022-09-25T07:35:42.701Z,100.00
2022-09-25T07:36:44.886Z,100.00
2022-09-25T07:37:47.021Z,100.00
2022-09-25T07:38:50.928Z,100.00
2022-09-25T07:39:53.035Z,100.00
2022-09-25T07:40:55.175Z,100.00
2022-09-25T07:41:57.386Z,100.00
2022-09-25T07:43:00.384Z,100.00
2022-09-25T07:44:18.031Z,100.00
2022-09-25T07:45:24.800Z,100.00
2022-09-25T07:46:28.358Z,100.00
2022-09-25T07:47:30.501Z,100.00
2022-09-25T07:48:33.174Z,100.00
2022-09-25T07:49:35.703Z,100.00
2022-09-25T07:50:37.792Z,100.00
2022-09-25T07:51:39.965Z,100.00
2022-09-25T07:52:42.128Z,100.00
2022-09-25T07:53:45.269Z,100.00
2022-09-25T07:54:48.111Z,100.00
2022-09-25T07:55:51.113Z,100.00
2022-09-25T07:56:53.303Z,100.00
2022-09-25T07:57:58.342Z,100.00
2022-09-25T07:59:00.494Z,100.00
2022-09-25T08:00:02.661Z,100.00
2022-09-25T08:01:14.136Z,100.00
2022-09-25T08:02:16.410Z,100.00
2022-09-25T08:03:18.718Z,100.00
2022-09-25T08:04:21.446Z,100.00
2022-09-25T08:05:23.587Z,100.00
2022-09-25T08:06:25.686Z,100.00
2022-09-25T08:07:28.775Z,100.00
2022-09-25T08:08:31.521Z,100.00
2022-09-25T08:09:33.623Z,100.00
2022-09-25T08:10:35.807Z,100.00
2022-09-25T08:11:38.388Z,100.00
2022-09-25T08:12:40.960Z,100.00
2022-09-25T08:13:43.846Z,100.00
2022-09-25T08:14:46.098Z,100.00
2022-09-25T08:15:48.826Z,100.00
2022-09-25T08:16:55.687Z,100.00
2022-09-25T08:17:57.798Z,100.00
2022-09-25T08:18:59.884Z,100.00
2022-09-25T08:20:02.779Z,100.00
2022-09-25T08:21:05.413Z,100.00
2022-09-25T08:22:07.566Z,100.00
2022-09-25T08:23:09.779Z,100.00
2022-09-25T08:24:12.033Z,100.00
2022-09-25T08:25:14.627Z,100.00
2022-09-25T08:26:17.846Z,100.00
2022-09-25T08:27:19.981Z,100.00
2022-09-25T08:28:23.084Z,100.00
2022-09-25T08:29:25.239Z,97.06
2022-09-25T08:30:27.315Z,93.32
2022-09-25T08:31:29.973Z,88.13
2022-09-25T08:32:34.319Z,89.34
2022-09-25T08:33:37.356Z,76.95
2022-09-25T08:34:41.475Z,76.23
2022-09-25T08:35:44.062Z,71.37
2022-09-25T08:36:49.007Z,70.36
2022-09-25T08:37:51.110Z,68.21
2022-09-25T08:38:58.531Z,64.20
2022-09-25T08:40:00.941Z,64.47
2022-09-25T08:41:13.328Z,63.67
2022-09-25T08:42:23.147Z,62.23
2022-09-25T08:43:26.719Z,60.34
2022-09-25T08:44:31.640Z,60.64
2022-09-25T08:46:01.812Z,56.29
2022-09-25T08:47:41.926Z,54.72
2022-09-25T08:49:06.194Z,57.23
2022-09-25T08:50:35.213Z,54.81
2022-09-25T08:51:45.423Z,54.38
2022-09-25T08:53:01.015Z,56.05
2022-09-25T08:54:04.601Z,53.93
2022-09-25T08:55:54.623Z,54.78
2022-09-25T08:57:06.994Z,54.92
2022-09-25T08:58:10.293Z,54.94
2022-09-25T08:59:32.967Z,51.26
2022-09-25T09:00:35.257Z,55.33
2022-09-25T09:01:47.653Z,54.27
2022-09-25T09:02:55.123Z,51.84
2022-09-25T09:04:26.339Z,52.52
2022-09-25T09:05:33.796Z,53.31
2022-09-25T09:06:38.122Z,52.95
2022-09-25T09:07:43.891Z,50.64
2022-09-25T09:08:56.994Z,49.82
2022-09-25T09:10:21.521Z,49.41
2022-09-25T09:11:36.443Z,51.62
2022-09-25T09:12:53.604Z,49.34
2022-09-25T09:14:06.912Z,48.82
2022-09-25T09:15:18.655Z,47.17
2022-09-25T09:16:26.592Z,48.97
2022-09-25T09:17:41.426Z,49.73
2022-09-25T09:18:44.015Z,46.60
2022-09-25T09:19:50.448Z,45.84
2022-09-25T09:20:58.077Z,44.62
2022-09-25T09:22:14.943Z,44.10
2022-09-25T09:23:20.434Z,42.77
2022-09-25T09:24:29.188Z,42.13
2022-09-25T09:25:40.524Z,42.66
2022-09-25T09:26:52.634Z,44.85
2022-09-25T09:28:32.135Z,41.85
2022-09-25T09:29:47.799Z,43.08
2022-09-25T09:31:33.015Z,40.43
2022-09-25T09:33:02.903Z,41.07
2022-09-25T09:35:00.973Z,41.93
2022-09-25T09:36:13.822Z,42.53
2022-09-25T09:37:31.693Z,44.68
2022-09-25T09:38:46.195Z,46.05
2022-09-25T09:39:57.150Z,47.98
2022-09-25T09:41:26.930Z,49.48
2022-09-25T09:42:28.995Z,51.44
2022-09-25T09:43:33.798Z,51.20
2022-09-25T09:44:50.926Z,50.22
2022-09-25T09:46:04.168Z,50.88
2022-09-25T09:47:44.887Z,51.06
2022-09-25T09:49:08.881Z,51.16
2022-09-25T09:50:20.307Z,53.06
2022-09-25T09:51:32.175Z,52.76
2022-09-25T09:52:42.327Z,53.88
2022-09-25T09:53:51.650Z,53.08
2022-09-25T09:55:02.401Z,48.89
2022-09-25T09:56:14.733Z,45.37
2022-09-25T09:57:23.039Z,43.70
2022-09-25T09:58:33.564Z,42.81
2022-09-25T09:59:46.679Z,41.84
2022-09-25T10:00:50.067Z,41.89
2022-09-25T10:02:13.750Z,39.31
2022-09-25T10:03:24.775Z,38.77
2022-09-25T10:04:33.802Z,40.42
2022-09-25T10:05:48.504Z,40.47
2022-09-25T10:07:01.279Z,43.87
2022-09-25T10:08:04.044Z,43.72
2022-09-25T10:09:08.250Z,45.25
2022-09-25T10:10:16.045Z,45.36
2022-09-25T10:11:20.553Z,46.60
2022-09-25T10:12:29.098Z,47.93
2022-09-25T10:13:34.214Z,48.90
2022-09-25T10:14:41.046Z,49.88
2022-09-25T10:15:51.079Z,50.33
2022-09-25T10:16:53.937Z,50.98
2022-09-25T10:17:59.775Z,53.81
2022-09-25T10:19:19.199Z,53.34
2022-09-25T10:20:23.460Z,54.21
2022-09-25T10:21:31.603Z,52.46
2022-09-25T10:22:43.818Z,54.52
2022-09-25T10:23:54.032Z,57.74
2022-09-25T10:25:07.112Z,59.11
2022-09-25T10:26:36.701Z,59.75
2022-09-25T10:27:47.854Z,61.49
2022-09-25T10:28:50.393Z,61.71
2022-09-25T10:30:02.614Z,61.70
2022-09-25T10:31:08.961Z,62.68
2022-09-25T10:32:11.685Z,63.09
2022-09-25T10:33:22.295Z,64.49
2022-09-25T10:34:26.413Z,65.01
2022-09-25T10:35:30.476Z,65.25
2022-09-25T10:36:37.510Z,66.07
2022-09-25T10:37:40.708Z,65.35
2022-09-25T10:38:53.427Z,65.30
2022-09-25T10:40:22.663Z,63.92
2022-09-25T10:41:25.911Z,64.64
2022-09-25T10:42:39.463Z,65.39
2022-09-25T10:43:55.589Z,64.78
2022-09-25T10:44:58.203Z,64.93
2022-09-25T10:46:11.634Z,64.64
2022-09-25T10:47:38.503Z,64.71
2022-09-25T10:49:00.560Z,64.70
2022-09-25T10:50:24.440Z,63.69
2022-09-25T10:51:27.079Z,63.20
2022-09-25T10:52:29.176Z,63.88
2022-09-25T10:53:31.261Z,65.71
2022-09-25T10:54:36.772Z,64.97
2022-09-25T10:55:46.379Z,63.58
2022-09-25T10:56:49.177Z,61.99
2022-09-25T10:58:04.732Z,61.80
2022-09-25T10:59:22.042Z,62.65
2022-09-25T11:00:26.838Z,63.08
2022-09-25T11:01:35.263Z,62.65
2022-09-25T11:02:45.652Z,62.92
2022-09-25T11:03:52.464Z,63.32
2022-09-25T11:04:56.995Z,61.42
2022-09-25T11:06:04.197Z,59.66
2022-09-25T11:07:15.575Z,60.15
2022-09-25T11:08:17.789Z,58.41
2022-09-25T11:09:23.299Z,58.14
2022-09-25T11:10:29.489Z,57.04
2022-09-25T11:11:31.801Z,56.33
2022-09-25T11:12:34.840Z,57.37
2022-09-25T11:13:43.079Z,56.45
2022-09-25T11:14:56.315Z,56.35
2022-09-25T11:16:04.119Z,55.33
2022-09-25T11:17:06.714Z,54.60
2022-09-25T11:18:39.289Z,54.57
2022-09-25T11:19:41.481Z,56.09
2022-09-25T11:20:43.562Z,56.18
2022-09-25T11:21:57.027Z,56.36
2022-09-25T11:23:21.992Z,55.68
2022-09-25T11:24:27.288Z,55.58
2022-09-25T11:26:16.616Z,56.51
2022-09-25T11:27:31.317Z,60.45
2022-09-25T11:28:52.198Z,60.69
2022-09-25T11:30:00.571Z,60.47
2022-09-25T11:31:02.604Z,60.51
2022-09-25T11:32:31.911Z,59.40
2022-09-25T11:33:52.869Z,57.78
2022-09-25T11:34:59.337Z,55.75
2022-09-25T11:36:33.199Z,52.67
2022-09-25T11:37:50.659Z,48.20
2022-09-25T11:39:18.264Z,47.52
2022-09-25T11:41:03.571Z,44.32
2022-09-25T11:42:16.132Z,42.66
2022-09-25T11:43:35.171Z,41.89
2022-09-25T11:44:45.173Z,42.54
2022-09-25T11:45:59.457Z,43.20
2022-09-25T11:47:53.511Z,45.26
2022-09-25T11:49:25.008Z,45.27
2022-09-25T11:50:42.907Z,47.73
2022-09-25T11:52:04.101Z,49.90
2022-09-25T11:53:24.426Z,52.38
2022-09-25T11:55:11.482Z,53.76
2022-09-25T11:56:33.237Z,55.50
2022-09-25T11:57:59.641Z,55.83
2022-09-25T11:59:29.664Z,57.76
2022-09-25T12:00:55.422Z,58.30
2022-09-25T12:02:20.837Z,59.34
2022-09-25T12:03:35.264Z,60.27
2022-09-25T12:05:07.945Z,60.62
2022-09-25T12:06:45.155Z,61.91
2022-09-25T12:08:09.556Z,62.04
2022-09-25T12:09:14.675Z,62.74
2022-09-25T12:10:19.416Z,64.66
2022-09-25T12:11:45.766Z,64.09
2022-09-25T12:13:13.786Z,63.47
2022-09-25T12:14:37.124Z,63.01
2022-09-25T12:15:49.448Z,63.72
2022-09-25T12:17:17.749Z,63.75
2022-09-25T12:18:46.267Z,64.29
2022-09-25T12:19:52.053Z,63.76
2022-09-25T12:22:44.124Z,63.22
2022-09-25T12:24:01.431Z,63.06
2022-09-25T12:25:21.264Z,62.23
2022-09-25T12:26:55.570Z,60.37
2022-09-25T12:28:12.164Z,59.93
2022-09-25T12:29:35.806Z,58.77
2022-09-25T12:31:01.279Z,57.99
2022-09-25T12:32:28.993Z,57.23
2022-09-25T12:33:45.876Z,56.05
2022-09-25T12:35:29.100Z,55.92
2022-09-25T12:36:42.816Z,55.81
2022-09-25T12:37:53.120Z,56.91
2022-09-25T12:39:24.823Z,57.47
2022-09-25T12:40:34.677Z,60.14
2022-09-25T12:41:42.970Z,60.38
2022-09-25T12:43:02.890Z,62.51
2022-09-25T12:44:12.717Z,63.70
2022-09-25T12:45:36.309Z,64.32
2022-09-25T12:46:44.110Z,65.25
2022-09-25T12:48:00.030Z,65.56
2022-09-25T12:49:07.085Z,65.15
2022-09-25T12:50:17.478Z,66.85
2022-09-25T12:51:23.790Z,67.55
2022-09-25T12:52:38.030Z,68.08
2022-09-25T12:53:49.553Z,68.02
2022-09-25T12:55:05.920Z,67.62
2022-09-25T12:56:24.685Z,66.93
2022-09-25T12:57:45.770Z,66.68
2022-09-25T12:59:13.649Z,65.72
2022-09-25T13:00:25.869Z,67.40
2022-09-25T13:01:41.971Z,67.00
2022-09-25T13:02:54.570Z,66.65
2022-09-25T13:04:08.968Z,63.47
2022-09-25T13:05:25.770Z,59.76
2022-09-25T13:06:50.284Z,56.98
2022-09-25T13:08:03.739Z,55.79
2022-09-25T13:09:14.853Z,54.22
2022-09-25T13:10:40.917Z,50.71
2022-09-25T13:11:47.903Z,49.25
2022-09-25T13:12:52.182Z,47.57
2022-09-25T13:13:55.981Z,47.37
2022-09-25T13:15:13.150Z,47.33
2022-09-25T13:16:16.767Z,47.45
2022-09-25T13:17:19.110Z,45.78
2022-09-25T13:18:23.615Z,46.60
2022-09-25T13:19:28.768Z,46.32
2022-09-25T13:20:31.820Z,44.80
2022-09-25T13:21:36.904Z,44.57
2022-09-25T13:22:41.401Z,44.36
2022-09-25T13:23:43.566Z,44.59
2022-09-25T13:24:52.341Z,42.75
2022-09-25T13:26:00.371Z,43.99
2022-09-25T13:27:03.538Z,43.50
2022-09-25T13:28:07.991Z,43.26
2022-09-25T13:29:36.473Z,42.53
2022-09-25T13:30:38.704Z,41.40
2022-09-25T13:31:44.404Z,41.42
2022-09-25T13:32:52.562Z,42.17
2022-09-25T13:33:57.537Z,41.57
2022-09-25T13:35:03.717Z,42.06
2022-09-25T13:36:16.367Z,42.01
2022-09-25T13:37:18.539Z,43.80
2022-09-25T13:38:39.132Z,42.78
2022-09-25T13:40:05.366Z,41.97
2022-09-25T13:41:13.427Z,42.16
2022-09-25T13:42:39.657Z,42.42
2022-09-25T13:43:41.872Z,43.20
2022-09-25T13:44:44.502Z,44.37
2022-09-25T13:45:48.579Z,45.25
2022-09-25T13:46:50.939Z,46.45
2022-09-25T13:48:06.140Z,48.44
2022-09-25T13:49:35.410Z,48.29
2022-09-25T13:50:38.675Z,46.98
2022-09-25T13:51:44.954Z,47.47
2022-09-25T13:52:47.028Z,48.34
2022-09-25T13:54:05.402Z,48.35
2022-09-25T13:55:13.636Z,49.86
2022-09-25T13:56:21.424Z,49.80
2022-09-25T13:57:58.826Z,50.53
2022-09-25T13:59:20.646Z,50.36
2022-09-25T14:00:23.750Z,50.29
2022-09-25T14:01:38.378Z,49.00
2022-09-25T14:02:46.330Z,48.67
2022-09-25T14:03:50.025Z,48.39
2022-09-25T14:04:52.313Z,49.61
2022-09-25T14:05:54.560Z,48.35
2022-09-25T14:07:13.051Z,47.19
2022-09-25T14:08:16.260Z,45.52
2022-09-25T14:09:28.185Z,45.72
2022-09-25T14:10:30.443Z,46.78
2022-09-25T14:11:35.334Z,46.93
2022-09-25T14:12:43.109Z,46.95
2022-09-25T14:13:50.428Z,47.10
2022-09-25T14:15:01.862Z,45.39
2022-09-25T14:16:10.103Z,46.27
2022-09-25T14:17:16.607Z,46.42
2022-09-25T14:18:24.534Z,45.78
2022-09-25T14:19:31.306Z,45.89
2022-09-25T14:20:43.098Z,44.79
2022-09-25T14:21:48.113Z,45.79
2022-09-25T14:22:55.922Z,45.13
2022-09-25T14:24:12.742Z,45.47
2022-09-25T14:25:44.699Z,42.90
2022-09-25T14:26:48.433Z,43.50
2022-09-25T14:27:52.888Z,42.80
2022-09-25T14:28:57.207Z,44.03
2022-09-25T14:30:06.509Z,43.32
2022-09-25T14:31:11.361Z,44.12